Time;durP1;ratioP1;P1;durP2;ratioP2;P2;SDS_P1;SDS_P2;PMS_P1;PMS_P2;Temp;Humidity;BMP_temperature;BMP_pressure;BME280_temperature;BME280_humidity;BME280_pressure;Samples;Min_cycle;Max_cycle;Signal;HPM_P1;HPM_P2
2022/03/10 00:01:53;;;;;;;4.80;1.27;;;;;;;;;;5041062;28;20029;-63
2022/03/10 00:04:19;;;;;;;8.05;1.20;;;;;;;;;;5041723;28;20045;-63
2022/03/10 00:06:45;;;;;;;7.75;1.50;;;;;;;;;;5047935;28;20132;-64
2022/03/10 00:09:11;;;;;;;5.40;1.35;;;;;;;;;;5036065;28;20072;-63
2022/03/10 00:11:37;;;;;;;8.32;1.17;;;;;;;;;;5047340;28;20125;-64
2022/03/10 00:14:03;;;;;;;5.63;1.35;;;;;;;;;;5041774;28;20024;-63
2022/03/10 00:16:29;;;;;;;13.10;1.85;;;;;;;;;;5040287;28;20417;-63
2022/03/10 00:18:56;;;;;;;8.43;1.60;;;;;;;;;;5049192;28;20131;-63
2022/03/10 00:21:22;;;;;;;7.63;1.92;;;;;;;;;;5036172;28;20021;-63
2022/03/10 00:23:48;;;;;;;9.48;1.23;;;;;;;;;;5046032;28;20025;-63
2022/03/10 00:26:14;;;;;;;9.15;1.42;;;;;;;;;;5042490;28;20029;-63
2022/03/10 00:28:40;;;;;;;7.80;1.20;;;;;;;;;;5049074;28;20037;-64
2022/03/10 00:31:06;;;;;;;11.63;2.38;;;;;;;;;;5049898;28;20017;-64
2022/03/10 00:33:33;;;;;;;10.45;1.48;;;;;;;;;;5047311;28;20026;-63
2022/03/10 00:35:59;;;;;;;7.78;1.42;;;;;;;;;;5039859;28;20388;-64
2022/03/10 00:38:25;;;;;;;7.85;1.88;;;;;;;;;;5040057;28;20033;-63
2022/03/10 00:40:51;;;;;;;6.38;1.42;;;;;;;;;;5046682;28;20393;-64
2022/03/10 00:43:17;;;;;;;9.75;1.88;;;;;;;;;;5034614;28;20065;-64
2022/03/10 00:45:44;;;;;;;5.75;2.10;;;;;;;;;;5046035;28;20041;-64
2022/03/10 00:48:10;;;;;;;11.52;1.67;;;;;;;;;;5041021;28;20068;-63
2022/03/10 00:50:36;;;;;;;9.75;1.60;;;;;;;;;;5039081;28;20508;-63
2022/03/10 00:53:02;;;;;;;12.38;1.90;;;;;;;;;;5048645;28;20025;-63
2022/03/10 00:55:28;;;;;;;4.18;1.33;;;;;;;;;;5035252;28;20021;-63
2022/03/10 00:57:54;;;;;;;12.15;1.67;;;;;;;;;;5044929;28;20400;-63
2022/03/10 01:00:24;;;;;;;8.60;1.33;;;;;;;;;;5042058;28;20025;-64
2022/03/10 01:02:50;;;;;;;7.07;1.20;;;;;;;;;;5037254;28;20061;-63
2022/03/10 01:05:16;;;;;;;9.48;1.42;;;;;;;;;;5048225;28;20456;-63
2022/03/10 01:07:42;;;;;;;7.25;1.05;;;;;;;;;;5037447;28;20025;-63
2022/03/10 01:10:09;;;;;;;10.45;1.55;;;;;;;;;;5042778;28;20022;-63
2022/03/10 01:12:36;;;;;;;7.05;1.17;;;;;;;;;;5044381;28;20131;-63
2022/03/10 01:15:03;;;;;;;7.85;1.65;;;;;;;;;;5035812;28;20424;-63
2022/03/10 01:17:29;;;;;;;7.63;1.13;;;;;;;;;;5048143;28;20033;-63
2022/03/10 01:19:55;;;;;;;6.45;1.00;;;;;;;;;;5038909;28;20025;-63
2022/03/10 01:22:21;;;;;;;7.32;1.20;;;;;;;;;;5041355;28;20390;-63
2022/03/10 01:24:47;;;;;;;6.20;0.75;;;;;;;;;;5045667;28;20066;-63
2022/03/10 01:27:13;;;;;;;11.07;1.17;;;;;;;;;;5034848;28;20059;-63
2022/03/10 01:29:39;;;;;;;5.07;0.90;;;;;;;;;;5034678;28;20518;-63
2022/03/10 01:32:06;;;;;;;7.38;0.82;;;;;;;;;;5039918;28;20048;-63
2022/03/10 01:34:32;;;;;;;5.55;0.90;;;;;;;;;;5044892;28;20082;-63
2022/03/10 01:36:58;;;;;;;7.25;1.08;;;;;;;;;;5049626;28;20417;-63
2022/03/10 01:39:24;;;;;;;5.50;0.98;;;;;;;;;;5040527;28;20061;-63
2022/03/10 01:41:50;;;;;;;5.32;0.70;;;;;;;;;;5052398;28;20029;-63
2022/03/10 01:44:20;;;;;;;2.40;0.55;;;;;;;;;;5047298;28;20040;-63
2022/03/10 01:46:46;;;;;;;6.07;0.80;;;;;;;;;;5057725;28;20071;-63
2022/03/10 01:49:12;;;;;;;3.40;0.73;;;;;;;;;;5057107;28;20071;-63
2022/03/10 01:51:38;;;;;;;7.25;0.90;;;;;;;;;;5054535;28;20025;-63
2022/03/10 01:54:05;;;;;;;2.88;0.70;;;;;;;;;;5051612;28;20017;-63
2022/03/10 01:56:32;;;;;;;6.03;0.98;;;;;;;;;;5046960;28;20485;-63
2022/03/10 01:58:59;;;;;;;5.82;0.70;;;;;;;;;;5053037;28;20431;-63
2022/03/10 02:01:25;;;;;;;6.18;0.90;;;;;;;;;;5055930;28;20033;-63
2022/03/10 02:03:52;;;;;;;7.78;1.00;;;;;;;;;;5052696;28;20024;-63
2022/03/10 02:06:18;;;;;;;4.28;0.70;;;;;;;;;;5047110;28;20029;-63
2022/03/10 02:11:29;;;;;;;4.75;0.77;;;;;;;;;;5054314;28;20127;-63
2022/03/10 02:13:56;;;;;;;4.43;1.35;;;;;;;;;;5044217;28;20413;-63
2022/03/10 02:19:06;;;;;;;3.35;0.55;;;;;;;;;;5053534;28;20094;-63
2022/03/10 02:21:33;;;;;;;7.75;0.82;;;;;;;;;;5054719;28;20039;-63
2022/03/10 02:24:00;;;;;;;1.50;0.47;;;;;;;;;;5044374;28;20049;-63
2022/03/10 02:26:26;;;;;;;2.75;0.75;;;;;;;;;;5047781;28;20156;-63
2022/03/10 02:28:52;;;;;;;6.97;0.95;;;;;;;;;;5051632;28;20064;-63
2022/03/10 02:31:18;;;;;;;9.90;0.75;;;;;;;;;;5041113;28;20049;-63
2022/03/10 02:33:45;;;;;;;2.25;0.65;;;;;;;;;;5053738;28;20060;-63
2022/03/10 02:36:11;;;;;;;5.00;0.80;;;;;;;;;;5045492;28;20043;-63
2022/03/10 02:38:37;;;;;;;2.50;0.50;;;;;;;;;;5046406;28;20057;-63
2022/03/10 02:41:03;;;;;;;5.75;1.13;;;;;;;;;;5052715;28;20397;-63
2022/03/10 02:43:29;;;;;;;4.28;0.80;;;;;;;;;;5041030;28;20025;-63
2022/03/10 02:45:55;;;;;;;2.25;0.50;;;;;;;;;;5049839;28;20029;-63
2022/03/10 02:48:21;;;;;;;4.55;0.60;;;;;;;;;;5043656;28;20075;-63
2022/03/10 02:50:48;;;;;;;1.75;0.50;;;;;;;;;;5041725;28;20029;-63
2022/03/10 02:53:16;;;;;;;2.03;0.70;;;;;;;;;;5048132;28;20100;-63
2022/03/10 02:55:42;;;;;;;2.75;0.40;;;;;;;;;;5050906;28;20044;-63
2022/03/10 02:58:08;;;;;;;2.30;0.38;;;;;;;;;;5041584;28;20100;-63
2022/03/10 03:00:34;;;;;;;2.63;0.60;;;;;;;;;;5051518;28;20142;-63
2022/03/10 03:03:00;;;;;;;1.65;0.57;;;;;;;;;;5040288;28;20026;-63
2022/03/10 03:05:26;;;;;;;1.48;0.40;;;;;;;;;;5050318;28;20028;-63
2022/03/10 03:07:52;;;;;;;1.98;0.40;;;;;;;;;;5039162;28;20039;-63
2022/03/10 03:10:19;;;;;;;0.63;0.28;;;;;;;;;;5045770;28;20107;-63
2022/03/10 03:12:49;;;;;;;1.17;0.28;;;;;;;;;;5045140;28;20053;-63
2022/03/10 03:15:16;;;;;;;2.05;0.50;;;;;;;;;;5042409;28;20036;-63
2022/03/10 03:17:42;;;;;;;1.63;0.50;;;;;;;;;;5039474;28;20022;-63
2022/03/10 03:20:14;;;;;;;1.27;0.30;;;;;;;;;;5045977;28;20086;-63
2022/03/10 03:22:40;;;;;;;1.17;0.20;;;;;;;;;;5034119;28;20033;-63
2022/03/10 03:25:06;;;;;;;3.00;0.47;;;;;;;;;;5034635;28;20103;-63
2022/03/10 03:27:32;;;;;;;2.95;0.95;;;;;;;;;;5033378;28;20036;-63
2022/03/10 03:29:58;;;;;;;1.15;0.47;;;;;;;;;;5038801;28;20029;-63
2022/03/10 03:32:25;;;;;;;3.13;0.50;;;;;;;;;;5041590;28;20033;-63
2022/03/10 03:34:51;;;;;;;2.35;0.40;;;;;;;;;;5035781;28;20024;-63
2022/03/10 03:37:17;;;;;;;2.67;0.43;;;;;;;;;;5037120;28;20053;-63
2022/03/10 03:39:43;;;;;;;1.48;0.50;;;;;;;;;;5034139;28;20546;-63
2022/03/10 03:42:09;;;;;;;1.55;0.50;;;;;;;;;;5033258;28;20030;-63
2022/03/10 03:44:35;;;;;;;1.48;0.70;;;;;;;;;;5033090;28;20038;-63
2022/03/10 03:47:01;;;;;;;7.10;0.52;;;;;;;;;;5036153;28;20063;-63
2022/03/10 03:49:27;;;;;;;3.63;0.60;;;;;;;;;;5040533;28;20069;-63
2022/03/10 03:51:53;;;;;;;5.45;1.17;;;;;;;;;;5040567;28;20052;-63
2022/03/10 03:54:19;;;;;;;1.23;0.65;;;;;;;;;;5034543;28;20029;-63
2022/03/10 03:56:45;;;;;;;5.88;0.70;;;;;;;;;;5033777;28;20821;-63
2022/03/10 03:59:12;;;;;;;1.20;0.70;;;;;;;;;;5034356;28;20040;-63
2022/03/10 04:01:38;;;;;;;1.48;0.90;;;;;;;;;;5036503;28;20038;-63
2022/03/10 04:04:04;;;;;;;3.08;0.60;;;;;;;;;;5032462;28;20478;-63
2022/03/10 04:06:30;;;;;;;1.55;0.40;;;;;;;;;;5036483;28;20068;-63
2022/03/10 04:08:56;;;;;;;2.30;0.50;;;;;;;;;;5044144;28;20028;-63
2022/03/10 04:11:22;;;;;;;4.70;0.60;;;;;;;;;;5035793;28;20083;-63
2022/03/10 04:13:48;;;;;;;1.85;0.52;;;;;;;;;;5032318;28;20073;-63
2022/03/10 04:16:15;;;;;;;2.67;0.55;;;;;;;;;;5034506;28;20449;-63
2022/03/10 04:18:42;;;;;;;2.00;0.60;;;;;;;;;;5041031;28;20067;-63
2022/03/10 04:21:08;;;;;;;2.95;0.60;;;;;;;;;;5032142;28;20030;-63
2022/03/10 04:23:34;;;;;;;1.52;0.80;;;;;;;;;;5048348;28;20033;-63
2022/03/10 04:26:00;;;;;;;0.98;0.50;;;;;;;;;;5037159;28;20036;-63
2022/03/10 04:28:26;;;;;;;1.13;0.63;;;;;;;;;;5044643;28;20025;-63
2022/03/10 04:30:52;;;;;;;4.45;0.93;;;;;;;;;;5044231;28;20061;-63
2022/03/10 04:33:19;;;;;;;1.73;0.77;;;;;;;;;;5036475;28;20037;-63
2022/03/10 04:35:45;;;;;;;6.60;0.73;;;;;;;;;;5048399;28;20112;-63
2022/03/10 04:38:11;;;;;;;4.90;0.70;;;;;;;;;;5038451;28;20029;-63
2022/03/10 04:40:37;;;;;;;2.30;0.65;;;;;;;;;;5043223;28;20041;-63
2022/03/10 04:43:04;;;;;;;2.65;0.80;;;;;;;;;;5045422;28;20033;-63
2022/03/10 04:45:30;;;;;;;4.88;0.65;;;;;;;;;;5035945;28;20033;-63
2022/03/10 04:47:56;;;;;;;1.67;0.63;;;;;;;;;;5048243;28;20400;-63
2022/03/10 04:50:22;;;;;;;3.60;0.77;;;;;;;;;;5039338;28;20029;-63
2022/03/10 04:52:49;;;;;;;3.15;0.73;;;;;;;;;;5048728;28;20021;-63
2022/03/10 04:55:15;;;;;;;1.23;0.70;;;;;;;;;;5051883;28;20024;-63
2022/03/10 04:57:41;;;;;;;4.15;0.82;;;;;;;;;;5035458;28;20029;-63
2022/03/10 05:00:10;;;;;;;4.65;0.80;;;;;;;;;;5047203;28;20032;-63
2022/03/10 05:02:38;;;;;;;2.15;0.60;;;;;;;;;;5042981;28;20053;-63
2022/03/10 05:05:04;;;;;;;6.57;1.10;;;;;;;;;;5044797;28;20032;-63
2022/03/10 05:07:31;;;;;;;2.92;0.90;;;;;;;;;;5035965;28;20083;-63
2022/03/10 05:09:58;;;;;;;3.22;1.10;;;;;;;;;;5047620;28;20033;-63
2022/03/10 05:12:24;;;;;;;2.85;0.70;;;;;;;;;;5033308;28;20442;-63
2022/03/10 05:14:50;;;;;;;2.00;1.15;;;;;;;;;;5042291;28;20056;-63
2022/03/10 05:17:17;;;;;;;4.13;1.02;;;;;;;;;;5037375;28;20033;-63
2022/03/10 05:19:43;;;;;;;4.32;1.10;;;;;;;;;;5048088;28;20029;-63
2022/03/10 05:22:09;;;;;;;3.83;1.15;;;;;;;;;;5036771;28;20107;-63
2022/03/10 05:24:35;;;;;;;2.85;0.90;;;;;;;;;;5043586;28;20129;-63
2022/03/10 05:27:01;;;;;;;2.50;0.98;;;;;;;;;;5043637;28;20037;-63
2022/03/10 05:29:27;;;;;;;10.23;1.20;;;;;;;;;;5035916;28;20088;-63
2022/03/10 05:31:54;;;;;;;4.18;0.95;;;;;;;;;;5031048;28;20017;-63
2022/03/10 05:34:20;;;;;;;7.82;1.40;;;;;;;;;;5031819;28;20025;-63
2022/03/10 05:36:46;;;;;;;7.22;1.08;;;;;;;;;;5034464;28;20029;-63
2022/03/10 05:39:12;;;;;;;8.23;1.35;;;;;;;;;;5040818;28;20060;-63
2022/03/10 05:41:38;;;;;;;6.47;1.40;;;;;;;;;;5045921;28;20033;-63
2022/03/10 05:44:05;;;;;;;6.57;0.95;;;;;;;;;;5040381;28;20030;-63
2022/03/10 05:46:31;;;;;;;6.65;1.20;;;;;;;;;;5049594;28;20025;-63
2022/03/10 05:48:57;;;;;;;5.32;1.33;;;;;;;;;;5056736;28;20567;-63
2022/03/10 05:51:23;;;;;;;5.65;1.30;;;;;;;;;;5040849;28;20108;-63
2022/03/10 05:53:50;;;;;;;6.63;1.13;;;;;;;;;;5033189;28;20033;-63
2022/03/10 05:56:16;;;;;;;9.52;1.90;;;;;;;;;;5037490;28;20040;-63
2022/03/10 05:58:42;;;;;;;4.10;1.10;;;;;;;;;;5044947;28;20037;-65
2022/03/10 06:01:08;;;;;;;10.35;3.15;;;;;;;;;;5039148;28;20100;-65
2022/03/10 06:03:35;;;;;;;10.88;1.80;;;;;;;;;;5039584;28;20036;-65
2022/03/10 06:06:01;;;;;;;6.95;2.22;;;;;;;;;;5035944;28;20653;-66
2022/03/10 06:08:27;;;;;;;6.60;1.60;;;;;;;;;;5046223;28;20064;-66
2022/03/10 06:10:53;;;;;;;8.95;1.70;;;;;;;;;;5032881;28;20449;-66
2022/03/10 06:13:19;;;;;;;5.82;1.60;;;;;;;;;;5039521;28;20051;-67
2022/03/10 06:15:45;;;;;;;9.75;1.50;;;;;;;;;;5041042;28;20406;-66
2022/03/10 06:18:12;;;;;;;8.30;1.52;;;;;;;;;;5032157;28;20037;-66
2022/03/10 06:20:38;;;;;;;9.10;2.10;;;;;;;;;;5047131;28;20044;-66
2022/03/10 06:23:04;;;;;;;8.70;1.98;;;;;;;;;;5043043;28;20049;-66
2022/03/10 06:25:30;;;;;;;8.00;1.83;;;;;;;;;;5045513;28;20045;-66
2022/03/10 06:27:56;;;;;;;4.13;1.40;;;;;;;;;;5040087;28;20021;-66
2022/03/10 06:30:22;;;;;;;6.32;1.60;;;;;;;;;;5043429;28;20443;-66
2022/03/10 06:32:49;;;;;;;5.70;1.60;;;;;;;;;;5042354;28;20503;-66
2022/03/10 06:35:15;;;;;;;5.57;1.80;;;;;;;;;;5040417;28;20078;-66
2022/03/10 06:37:41;;;;;;;7.93;1.55;;;;;;;;;;5046505;28;20429;-66
2022/03/10 06:40:08;;;;;;;10.85;1.73;;;;;;;;;;5043162;28;20033;-66
2022/03/10 06:42:34;;;;;;;8.57;1.80;;;;;;;;;;5043073;28;20088;-66
2022/03/10 06:45:00;;;;;;;5.85;2.05;;;;;;;;;;5044691;28;20118;-66
2022/03/10 06:47:27;;;;;;;7.55;1.70;;;;;;;;;;5049481;28;20090;-66
2022/03/10 06:49:53;;;;;;;5.70;1.80;;;;;;;;;;5038567;28;20176;-66
2022/03/10 06:52:20;;;;;;;7.40;2.35;;;;;;;;;;5051428;28;20036;-66
2022/03/10 06:54:46;;;;;;;9.00;1.33;;;;;;;;;;5042121;28;20489;-66
2022/03/10 06:57:13;;;;;;;13.20;1.58;;;;;;;;;;5044052;28;20028;-66
2022/03/10 06:59:39;;;;;;;5.60;1.55;;;;;;;;;;5043393;28;20029;-66
2022/03/10 07:02:05;;;;;;;7.72;2.15;;;;;;;;;;5047595;28;20075;-66
2022/03/10 07:04:32;;;;;;;7.47;1.55;;;;;;;;;;5041107;28;20474;-66
2022/03/10 07:06:58;;;;;;;8.63;1.98;;;;;;;;;;5041917;28;20029;-66
2022/03/10 07:09:24;;;;;;;10.68;1.73;;;;;;;;;;5050206;28;20056;-66
2022/03/10 07:11:50;;;;;;;9.73;2.38;;;;;;;;;;5039074;28;20438;-66
2022/03/10 07:14:17;;;;;;;10.48;2.30;;;;;;;;;;5050460;28;20029;-66
2022/03/10 07:16:43;;;;;;;9.35;2.25;;;;;;;;;;5047054;28;20496;-66
2022/03/10 07:19:10;;;;;;;11.80;2.80;;;;;;;;;;5038959;28;20414;-66
2022/03/10 07:21:39;;;;;;;12.18;3.70;;;;;;;;;;5054553;28;20029;-66
2022/03/10 07:24:05;;;;;;;8.77;2.85;;;;;;;;;;5054302;28;20049;-66
2022/03/10 07:26:32;;;;;;;9.95;2.38;;;;;;;;;;5054682;28;20060;-66
2022/03/10 07:28:59;;;;;;;11.15;2.17;;;;;;;;;;5054825;28;20033;-66
2022/03/10 07:31:29;;;;;;;14.23;3.58;;;;;;;;;;5054578;28;20071;-66
2022/03/10 07:33:55;;;;;;;12.43;3.05;;;;;;;;;;5054041;28;20079;-66
2022/03/10 07:36:21;;;;;;;12.43;3.55;;;;;;;;;;5054228;28;20032;-66
2022/03/10 07:38:47;;;;;;;7.78;3.45;;;;;;;;;;5054510;28;20064;-66
2022/03/10 07:41:13;;;;;;;31.50;4.40;;;;;;;;;;5054105;28;20399;-66
2022/03/10 07:43:40;;;;;;;11.85;3.50;;;;;;;;;;5034531;28;20036;-66
2022/03/10 07:46:06;;;;;;;19.13;3.17;;;;;;;;;;5038820;28;20040;-66
2022/03/10 07:48:33;;;;;;;14.35;2.58;;;;;;;;;;5054408;28;20580;-66
2022/03/10 07:50:59;;;;;;;13.80;3.78;;;;;;;;;;5040920;28;20029;-66
2022/03/10 07:53:25;;;;;;;12.30;3.70;;;;;;;;;;5036100;28;20116;-66
2022/03/10 07:55:54;;;;;;;9.68;2.38;;;;;;;;;;5054075;28;20021;-66
2022/03/10 07:58:25;;;;;;;10.98;2.95;;;;;;;;;;5054100;28;20033;-66
2022/03/10 08:00:54;;;;;;;20.25;3.08;;;;;;;;;;5054238;28;20032;-66
2022/03/10 08:03:21;;;;;;;16.27;4.45;;;;;;;;;;5053930;28;20029;-66
2022/03/10 08:05:48;;;;;;;14.73;2.63;;;;;;;;;;5054159;28;20024;-66
2022/03/10 08:08:15;;;;;;;10.30;2.55;;;;;;;;;;5053833;28;20056;-66
2022/03/10 08:10:41;;;;;;;12.45;2.85;;;;;;;;;;5053629;28;20033;-66
2022/03/10 08:13:07;;;;;;;7.07;2.13;;;;;;;;;;5053569;28;20069;-66
2022/03/10 08:15:33;;;;;;;13.23;2.58;;;;;;;;;;5051103;28;20060;-66
2022/03/10 08:17:59;;;;;;;10.77;2.53;;;;;;;;;;5034196;28;20036;-66
2022/03/10 08:20:25;;;;;;;13.98;2.45;;;;;;;;;;5052178;28;20027;-66
2022/03/10 08:22:52;;;;;;;15.40;3.20;;;;;;;;;;5038752;28;20025;-66
2022/03/10 08:25:18;;;;;;;13.68;2.10;;;;;;;;;;5033001;28;20378;-66
2022/03/10 08:27:47;;;;;;;17.10;2.95;;;;;;;;;;5033463;28;20068;-66
2022/03/10 08:30:13;;;;;;;24.33;4.20;;;;;;;;;;5033280;28;20032;-66
2022/03/10 08:32:44;;;;;;;20.50;2.60;;;;;;;;;;5034484;28;20033;-66
2022/03/10 08:35:10;;;;;;;14.40;3.33;;;;;;;;;;5052291;28;20028;-66
2022/03/10 08:37:36;;;;;;;12.43;2.80;;;;;;;;;;5041876;28;20063;-66
2022/03/10 08:40:03;;;;;;;20.00;3.15;;;;;;;;;;5033235;28;20052;-66
2022/03/10 08:42:29;;;;;;;10.77;2.72;;;;;;;;;;5037854;28;20021;-66
2022/03/10 08:44:55;;;;;;;16.90;4.00;;;;;;;;;;5052394;28;20093;-66
2022/03/10 08:47:21;;;;;;;13.13;3.33;;;;;;;;;;5051667;28;20487;-66
2022/03/10 08:49:48;;;;;;;17.73;3.63;;;;;;;;;;5039711;28;20124;-66
2022/03/10 08:52:14;;;;;;;27.10;6.88;;;;;;;;;;5033503;28;20033;-66
2022/03/10 08:54:40;;;;;;;13.10;3.50;;;;;;;;;;5047381;28;20202;-66
2022/03/10 08:57:06;;;;;;;17.10;2.83;;;;;;;;;;5041360;28;20033;-66
2022/03/10 08:59:32;;;;;;;11.15;3.00;;;;;;;;;;5036078;28;20052;-66
2022/03/10 09:01:58;;;;;;;17.08;2.80;;;;;;;;;;5046388;28;20044;-66
2022/03/10 09:04:26;;;;;;;18.17;2.67;;;;;;;;;;5051426;28;20025;-66
2022/03/10 09:06:52;;;;;;;18.33;3.67;;;;;;;;;;5037538;28;20028;-65
2022/03/10 09:09:18;;;;;;;18.02;4.65;;;;;;;;;;5051214;28;20103;-65
2022/03/10 09:11:44;;;;;;;14.40;2.55;;;;;;;;;;5051567;28;20043;-65
2022/03/10 09:14:11;;;;;;;12.07;2.55;;;;;;;;;;5043470;28;20105;-65
2022/03/10 09:16:38;;;;;;;9.85;2.38;;;;;;;;;;5032243;28;20029;-65
2022/03/10 09:19:04;;;;;;;12.35;3.60;;;;;;;;;;5032528;28;20041;-66
2022/03/10 09:21:30;;;;;;;22.45;3.35;;;;;;;;;;5045170;28;20025;-66
2022/03/10 09:23:57;;;;;;;20.38;2.95;;;;;;;;;;5039829;28;20417;-66
2022/03/10 09:26:23;;;;;;;18.45;3.05;;;;;;;;;;5041024;28;20477;-66
2022/03/10 09:28:49;;;;;;;19.08;2.90;;;;;;;;;;5051296;28;20033;-66
2022/03/10 09:31:16;;;;;;;10.38;2.63;;;;;;;;;;5035306;28;20474;-66
2022/03/10 09:33:42;;;;;;;11.85;2.72;;;;;;;;;;5051920;28;20095;-66
2022/03/10 09:36:09;;;;;;;15.63;2.80;;;;;;;;;;5048167;28;20021;-66
2022/03/10 09:38:35;;;;;;;14.68;2.83;;;;;;;;;;5041429;28;20386;-66
2022/03/10 09:41:01;;;;;;;17.40;3.20;;;;;;;;;;5047391;28;20028;-66
2022/03/10 09:43:29;;;;;;;21.58;3.40;;;;;;;;;;5039424;28;20475;-66
2022/03/10 09:45:55;;;;;;;12.95;2.72;;;;;;;;;;5037051;28;20028;-66
2022/03/10 09:48:21;;;;;;;15.93;2.85;;;;;;;;;;5040230;28;20503;-66
2022/03/10 09:50:48;;;;;;;24.75;2.83;;;;;;;;;;5044202;28;20086;-66
2022/03/10 09:53:15;;;;;;;14.68;2.90;;;;;;;;;;5033356;28;20028;-66
2022/03/10 09:55:41;;;;;;;16.88;4.07;;;;;;;;;;5038018;28;20462;-66
2022/03/10 09:58:08;;;;;;;15.38;3.40;;;;;;;;;;5045655;28;20037;-66
2022/03/10 10:00:34;;;;;;;15.80;3.20;;;;;;;;;;5042664;28;20401;-66
2022/03/10 10:03:00;;;;;;;15.43;5.25;;;;;;;;;;5048415;28;20104;-66
2022/03/10 10:05:27;;;;;;;15.38;2.50;;;;;;;;;;5042933;28;20025;-66
2022/03/10 10:08:23;;;;;;;16.98;2.97;;;;;;;;;;5040898;28;20025;-66
2022/03/10 10:10:50;;;;;;;18.08;3.28;;;;;;;;;;5033505;28;20049;-66
2022/03/10 10:13:28;;;;;;;15.00;2.80;;;;;;;;;;5046379;28;20064;-65
2022/03/10 10:15:56;;;;;;;13.98;3.20;;;;;;;;;;5046990;28;20029;-65
2022/03/10 10:18:22;;;;;;;19.02;3.03;;;;;;;;;;5038810;28;20028;-65
2022/03/10 10:20:49;;;;;;;21.65;3.28;;;;;;;;;;5050834;28;20018;-65
2022/03/10 10:23:16;;;;;;;13.05;2.50;;;;;;;;;;5042172;28;20022;-65
2022/03/10 10:25:49;;;;;;;19.50;2.53;;;;;;;;;;5047734;28;20098;-65
2022/03/10 10:28:42;;;;;;;19.80;2.97;;;;;;;;;;5042718;28;20652;-65
2022/03/10 10:31:10;;;;;;;15.20;2.57;;;;;;;;;;5041588;28;20110;-65
2022/03/10 10:33:37;;;;;;;15.27;2.45;;;;;;;;;;5048993;28;20023;-65
2022/03/10 10:36:15;;;;;;;20.40;3.28;;;;;;;;;;5038946;28;20067;-65
2022/03/10 10:38:42;;;;;;;20.15;3.50;;;;;;;;;;5033859;28;20033;-65
2022/03/10 10:41:26;;;;;;;20.45;2.83;;;;;;;;;;5034423;28;20517;-65
2022/03/10 10:44:00;;;;;;;21.02;3.17;;;;;;;;;;5044950;28;20119;-65
2022/03/10 10:46:35;;;;;;;17.48;3.17;;;;;;;;;;5037609;28;20113;-64
2022/03/10 10:49:03;;;;;;;12.25;3.80;;;;;;;;;;5048070;28;20051;-64
2022/03/10 10:51:37;;;;;;;18.77;4.00;;;;;;;;;;5037875;28;20022;-65
2022/03/10 10:54:04;;;;;;;14.98;2.83;;;;;;;;;;5043010;28;20022;-65
2022/03/10 10:56:32;;;;;;;21.65;2.80;;;;;;;;;;5041456;28;20021;-65
2022/03/10 10:58:58;;;;;;;24.17;3.92;;;;;;;;;;5046876;28;20021;-65
2022/03/10 11:01:28;;;;;;;15.40;3.22;;;;;;;;;;5043192;28;20033;-65
2022/03/10 11:03:54;;;;;;;13.65;2.50;;;;;;;;;;5038939;28;20039;-65
2022/03/10 11:06:22;;;;;;;14.23;2.72;;;;;;;;;;5041133;28;20030;-65
2022/03/10 11:08:48;;;;;;;16.67;3.45;;;;;;;;;;5041591;28;20041;-65
2022/03/10 11:11:15;;;;;;;9.45;2.50;;;;;;;;;;5043288;28;20571;-65
2022/03/10 11:13:41;;;;;;;15.48;4.53;;;;;;;;;;5043206;28;20037;-65
2022/03/10 11:16:08;;;;;;;11.13;2.33;;;;;;;;;;5046750;28;20033;-65
2022/03/10 11:18:34;;;;;;;13.65;2.42;;;;;;;;;;5042969;28;20032;-65
2022/03/10 11:21:09;;;;;;;12.15;2.55;;;;;;;;;;5044427;28;20453;-65
2022/03/10 11:23:49;;;;;;;15.27;3.05;;;;;;;;;;5035933;28;20033;-65
2022/03/10 11:26:19;;;;;;;15.55;2.30;;;;;;;;;;5047005;28;20033;-65
2022/03/10 11:28:46;;;;;;;18.10;2.95;;;;;;;;;;5035114;28;20108;-65
2022/03/10 11:31:13;;;;;;;16.73;2.75;;;;;;;;;;5040944;28;20025;-65
2022/03/10 11:33:40;;;;;;;13.45;2.60;;;;;;;;;;5046576;28;20025;-65
2022/03/10 11:36:26;;;;;;;14.55;2.80;;;;;;;;;;5044197;28;20104;-65
2022/03/10 11:38:52;;;;;;;15.80;2.38;;;;;;;;;;5042379;28;20029;-65
2022/03/10 11:41:18;;;;;;;13.23;2.83;;;;;;;;;;5040601;28;20042;-65
2022/03/10 11:43:56;;;;;;;12.15;2.80;;;;;;;;;;5037421;28;20043;-65
2022/03/10 11:46:23;;;;;;;12.60;2.40;;;;;;;;;;5034717;28;20064;-65
2022/03/10 11:49:09;;;;;;;15.80;2.42;;;;;;;;;;5040096;28;20033;-65
2022/03/10 11:51:48;;;;;;;9.80;1.67;;;;;;;;;;5045385;28;20025;-65
2022/03/10 11:54:18;;;;;;;12.02;2.30;;;;;;;;;;5053600;28;20151;-65
2022/03/10 11:56:44;;;;;;;12.00;2.17;;;;;;;;;;5053420;28;20040;-65
2022/03/10 11:59:23;;;;;;;13.43;2.50;;;;;;;;;;5046841;28;20017;-64
2022/03/10 12:01:49;;;;;;;7.32;1.70;;;;;;;;;;5043501;28;20437;-64
2022/03/10 12:04:21;;;;;;;16.90;2.10;;;;;;;;;;5046810;28;20033;-64
2022/03/10 12:06:57;;;;;;;9.13;1.63;;;;;;;;;;5051589;28;20040;-64
2022/03/10 12:09:28;;;;;;;14.27;1.80;;;;;;;;;;5040200;28;20040;-64
2022/03/10 12:11:55;;;;;;;8.15;2.03;;;;;;;;;;5049844;28;20041;-64
2022/03/10 12:14:28;;;;;;;10.35;2.30;;;;;;;;;;5053337;28;20032;-64
2022/03/10 12:16:54;;;;;;;12.30;1.85;;;;;;;;;;5051591;28;20028;-64
2022/03/10 12:19:20;;;;;;;9.07;2.17;;;;;;;;;;5053065;28;20159;-64
2022/03/10 12:21:46;;;;;;;9.05;1.85;;;;;;;;;;5053327;28;20485;-64
2022/03/10 12:24:13;;;;;;;9.65;1.80;;;;;;;;;;5052970;28;20496;-64
2022/03/10 12:26:47;;;;;;;12.88;2.20;;;;;;;;;;5050669;28;20087;-64
2022/03/10 12:29:14;;;;;;;5.22;2.17;;;;;;;;;;5032039;28;20037;-64
2022/03/10 12:31:41;;;;;;;5.72;1.52;;;;;;;;;;5037920;28;20028;-64
2022/03/10 12:34:15;;;;;;;7.18;1.88;;;;;;;;;;5040156;28;20025;-64
2022/03/10 12:36:41;;;;;;;9.65;1.67;;;;;;;;;;5040622;28;20025;-65
2022/03/10 12:39:12;;;;;;;11.10;1.90;;;;;;;;;;5033857;28;20079;-64
2022/03/10 12:41:39;;;;;;;8.05;2.30;;;;;;;;;;5037582;28;20491;-64
2022/03/10 12:44:06;;;;;;;10.00;1.50;;;;;;;;;;5043147;28;20477;-64
2022/03/10 12:46:33;;;;;;;9.10;1.70;;;;;;;;;;5051175;28;20024;-64
2022/03/10 12:49:02;;;;;;;20.08;2.63;;;;;;;;;;5052416;28;20493;-64
2022/03/10 12:51:38;;;;;;;14.93;2.22;;;;;;;;;;5037937;28;20052;-64
2022/03/10 12:54:06;;;;;;;10.00;1.83;;;;;;;;;;5040252;28;20067;-64
2022/03/10 12:56:51;;;;;;;10.10;2.03;;;;;;;;;;5039264;28;20025;-64
2022/03/10 12:59:28;;;;;;;12.65;2.92;;;;;;;;;;5039954;28;20044;-64
2022/03/10 13:01:54;;;;;;;11.75;2.33;;;;;;;;;;5044571;28;20055;-64
2022/03/10 13:04:21;;;;;;;11.25;2.08;;;;;;;;;;5042550;28;20064;-64
2022/03/10 13:06:48;;;;;;;18.02;2.40;;;;;;;;;;5041070;28;20028;-64
2022/03/10 13:09:23;;;;;;;11.90;1.88;;;;;;;;;;5039583;28;20025;-64
2022/03/10 13:11:49;;;;;;;14.45;2.00;;;;;;;;;;5039816;28;20029;-64
2022/03/10 13:14:16;;;;;;;7.82;1.90;;;;;;;;;;5040721;28;20044;-64
2022/03/10 13:16:49;;;;;;;10.57;2.10;;;;;;;;;;5040922;28;20424;-64
2022/03/10 13:19:29;;;;;;;15.07;2.08;;;;;;;;;;5041832;28;20047;-64
2022/03/10 13:22:01;;;;;;;13.80;2.10;;;;;;;;;;5040671;28;20036;-64
2022/03/10 13:24:54;;;;;;;10.60;1.67;;;;;;;;;;5041500;28;20704;-64
2022/03/10 13:27:21;;;;;;;8.02;2.72;;;;;;;;;;5041915;28;20139;-64
2022/03/10 13:29:50;;;;;;;9.95;2.08;;;;;;;;;;5038884;28;20025;-64
2022/03/10 13:32:21;;;;;;;8.32;1.50;;;;;;;;;;5034208;28;20164;-64
2022/03/10 13:34:48;;;;;;;14.15;2.35;;;;;;;;;;5041283;28;20078;-64
2022/03/10 13:37:15;;;;;;;10.48;2.03;;;;;;;;;;5043715;28;20029;-64
2022/03/10 13:39:42;;;;;;;5.85;1.30;;;;;;;;;;5042936;28;20369;-64
2022/03/10 13:42:11;;;;;;;11.35;1.70;;;;;;;;;;5042893;28;20028;-64
2022/03/10 13:44:38;;;;;;;8.70;1.60;;;;;;;;;;5044097;28;20035;-64
2022/03/10 13:47:08;;;;;;;8.10;1.52;;;;;;;;;;5040438;28;20048;-64
2022/03/10 13:49:50;;;;;;;11.75;1.75;;;;;;;;;;5039112;28;20025;-64
2022/03/10 13:52:17;;;;;;;4.77;1.37;;;;;;;;;;5040756;28;20060;-64
2022/03/10 13:54:53;;;;;;;10.70;2.95;;;;;;;;;;5042056;28;20028;-64
2022/03/10 13:57:20;;;;;;;12.48;2.28;;;;;;;;;;5045040;28;20905;-64
2022/03/10 13:59:47;;;;;;;7.55;1.35;;;;;;;;;;5032788;28;20036;-64
2022/03/10 14:02:20;;;;;;;14.23;1.77;;;;;;;;;;5042162;28;20423;-64
2022/03/10 14:04:46;;;;;;;13.55;2.53;;;;;;;;;;5038156;28;20155;-64
2022/03/10 14:07:12;;;;;;;11.00;1.73;;;;;;;;;;5042478;28;20040;-64
2022/03/10 14:09:42;;;;;;;4.97;1.30;;;;;;;;;;5036282;28;20056;-64
2022/03/10 14:12:23;;;;;;;7.03;1.40;;;;;;;;;;5039344;28;20048;-64
2022/03/10 14:14:50;;;;;;;8.00;1.60;;;;;;;;;;5042381;28;20025;-64
2022/03/10 14:17:19;;;;;;;12.82;2.20;;;;;;;;;;5044353;28;20025;-64
2022/03/10 14:19:46;;;;;;;11.23;1.65;;;;;;;;;;5043629;28;20029;-64
2022/03/10 14:22:16;;;;;;;11.23;2.28;;;;;;;;;;5040668;28;20024;-64
2022/03/10 14:24:43;;;;;;;7.82;1.95;;;;;;;;;;5038931;28;20316;-64
2022/03/10 14:27:10;;;;;;;9.60;2.22;;;;;;;;;;5039186;28;20084;-64
2022/03/10 14:29:40;;;;;;;12.57;1.85;;;;;;;;;;5042330;28;20033;-64
2022/03/10 14:32:06;;;;;;;9.73;2.05;;;;;;;;;;5042807;28;20036;-64
2022/03/10 14:34:33;;;;;;;6.88;2.17;;;;;;;;;;5044689;28;20025;-64
2022/03/10 14:37:00;;;;;;;10.85;1.60;;;;;;;;;;5043515;28;20025;-64
2022/03/10 14:39:26;;;;;;;11.77;1.83;;;;;;;;;;5038940;28;20025;-64
2022/03/10 14:41:52;;;;;;;8.00;2.10;;;;;;;;;;5039625;28;20037;-64
2022/03/10 14:44:18;;;;;;;11.13;1.80;;;;;;;;;;5043345;28;20033;-64
2022/03/10 14:46:44;;;;;;;9.45;1.77;;;;;;;;;;5045726;28;20021;-64